createdAt,value
2023-02-06T00:04:43.518Z,56.21
2023-02-06T00:09:48.328Z,58.11
2023-02-06T00:14:51.747Z,54.99
2023-02-06T00:19:55.163Z,56.51
2023-02-06T00:25:00.005Z,60.45
2023-02-06T00:30:03.406Z,62.48
2023-02-06T00:35:07.418Z,63.27
2023-02-06T00:40:13.159Z,62.30
2023-02-06T00:45:16.723Z,63.08
2023-02-06T00:50:20.568Z,63.06
2023-02-06T00:55:25.444Z,64.55
2023-02-06T01:00:31.710Z,64.36
2023-02-06T01:05:35.496Z,67.18
2023-02-06T01:10:42.694Z,68.85
2023-02-06T01:15:50.784Z,70.14
2023-02-06T01:20:54.540Z,70.15
2023-02-06T01:25:59.500Z,69.55
2023-02-06T01:31:03.022Z,65.25
2023-02-06T01:36:09.098Z,66.60
2023-02-06T01:41:17.525Z,67.04
2023-02-06T01:46:21.646Z,68.09
2023-02-06T01:51:28.131Z,67.35
2023-02-06T01:56:38.105Z,70.28
2023-02-06T02:01:42.205Z,69.06
2023-02-06T02:06:52.762Z,67.28
2023-02-06T02:11:57.788Z,66.23
2023-02-06T02:17:09.350Z,65.92
2023-02-06T02:22:42.393Z,67.80
2023-02-06T02:28:00.492Z,67.56
2023-02-06T02:33:22.693Z,67.61
2023-02-06T02:38:38.204Z,68.87
2023-02-06T02:43:44.622Z,70.04
2023-02-06T02:48:53.618Z,67.26
2023-02-06T02:54:01.831Z,69.10
2023-02-06T02:59:11.846Z,65.73
2023-02-06T03:04:22.983Z,63.61
2023-02-06T03:09:43.252Z,64.79
2023-02-06T03:14:54.074Z,65.92
2023-02-06T03:20:00.876Z,66.64
2023-02-06T03:25:09.430Z,67.49
2023-02-06T03:30:15.297Z,67.50
2023-02-06T03:35:26.073Z,68.05
2023-02-06T03:40:31.980Z,66.40
2023-02-06T03:45:40.534Z,70.20
2023-02-06T03:50:45.752Z,69.52
2023-02-06T03:55:55.294Z,72.77
2023-02-06T04:01:03.759Z,71.42
2023-02-06T04:06:07.335Z,64.32
2023-02-06T04:11:14.219Z,63.52
2023-02-06T04:16:17.682Z,63.55
2023-02-06T04:21:21.128Z,66.75
2023-02-06T04:26:25.858Z,72.67
2023-02-06T04:31:29.281Z,75.09
2023-02-06T04:36:32.776Z,75.41
2023-02-06T04:41:42.231Z,73.26
2023-02-06T04:46:46.094Z,74.79
2023-02-06T04:51:49.709Z,73.69
2023-02-06T04:56:56.743Z,75.26
2023-02-06T05:02:00.147Z,75.04
2023-02-06T05:07:08.355Z,74.04
2023-02-06T05:12:15.411Z,73.72
2023-02-06T05:17:18.763Z,74.87
2023-02-06T05:22:22.349Z,73.07
2023-02-06T05:27:29.506Z,75.03
2023-02-06T05:32:35.223Z,75.22
2023-02-06T05:37:39.120Z,69.40
2023-02-06T05:42:43.911Z,76.15
2023-02-06T05:47:49.545Z,76.61
2023-02-06T05:52:52.904Z,78.26
2023-02-06T05:57:57.718Z,74.42
2023-02-06T06:03:03.534Z,75.08
2023-02-06T06:08:09.225Z,79.04
2023-02-06T06:13:13.952Z,83.60
2023-02-06T06:18:19.580Z,82.95
2023-02-06T06:23:23.034Z,87.16
2023-02-06T06:28:28.133Z,85.91
2023-02-06T06:33:31.582Z,91.64
2023-02-06T06:38:35.099Z,88.77
2023-02-06T06:43:39.965Z,96.47
2023-02-06T06:48:43.438Z,92.47
2023-02-06T06:53:46.864Z,96.21
2023-02-06T06:58:54.231Z,98.30
2023-02-06T07:03:59.821Z,97.72
2023-02-06T07:09:03.237Z,87.09
2023-02-06T07:14:08.200Z,82.61
2023-02-06T07:19:14.592Z,80.15
2023-02-06T07:24:21.148Z,81.08
2023-02-06T07:29:26.008Z,89.34
2023-02-06T07:34:29.536Z,101.56
2023-02-06T07:39:33.418Z,108.10
2023-02-06T07:44:40.539Z,97.24
2023-02-06T07:49:43.989Z,83.03
2023-02-06T07:54:47.463Z,77.04
2023-02-06T07:59:52.247Z,72.59
2023-02-06T08:04:56.049Z,72.50
2023-02-06T08:10:01.606Z,66.98
2023-02-06T08:15:09.154Z,63.71
2023-02-06T08:20:13.410Z,61.83
2023-02-06T08:25:19.562Z,67.86
2023-02-06T08:30:24.501Z,63.57
2023-02-06T08:35:30.237Z,68.86
2023-02-06T08:40:33.699Z,63.13
2023-02-06T08:45:38.919Z,59.08
2023-02-06T08:50:43.230Z,52.37
2023-02-06T08:55:49.210Z,49.28
2023-02-06T09:00:56.314Z,52.27
2023-02-06T09:06:09.516Z,54.38
2023-02-06T09:11:15.691Z,52.93
2023-02-06T09:16:23.905Z,52.87
2023-02-06T09:21:27.413Z,53.95
2023-02-06T09:26:32.026Z,47.37
2023-02-06T09:31:38.422Z,49.36
2023-02-06T09:36:44.372Z,47.52
2023-02-06T09:41:50.371Z,46.60
2023-02-06T09:46:59.873Z,46.64
2023-02-06T09:52:30.262Z,45.89
2023-02-06T09:57:38.922Z,44.07
2023-02-06T10:02:57.792Z,43.84
2023-02-06T10:08:11.569Z,43.92
2023-02-06T10:13:21.347Z,42.47
2023-02-06T10:18:31.017Z,40.99
2023-02-06T10:23:40.224Z,39.35
2023-02-06T10:28:45.589Z,39.13
2023-02-06T10:33:56.110Z,40.75
2023-02-06T10:39:18.168Z,42.96
2023-02-06T10:44:29.131Z,38.45
2023-02-06T10:49:38.349Z,36.78
2023-02-06T10:54:52.614Z,36.94
2023-02-06T11:00:00.704Z,34.42
2023-02-06T11:05:08.589Z,29.23
2023-02-06T11:10:16.500Z,26.32
2023-02-06T11:15:24.108Z,29.27
2023-02-06T11:20:32.628Z,36.46
2023-02-06T11:25:38.594Z,33.73
2023-02-06T11:30:54.201Z,34.92
2023-02-06T11:36:00.662Z,42.15
2023-02-06T11:41:05.947Z,47.96
2023-02-06T11:46:15.147Z,49.97
2023-02-06T11:51:19.925Z,59.19
2023-02-06T11:56:23.295Z,52.94
2023-02-06T12:01:26.733Z,54.96
2023-02-06T12:06:36.779Z,58.19
2023-02-06T12:11:49.327Z,54.60
2023-02-06T12:16:53.729Z,63.63
2023-02-06T12:22:07.054Z,53.66
2023-02-06T12:27:15.908Z,56.51
2023-02-06T12:32:22.988Z,57.45
2023-02-06T12:37:32.885Z,56.13
2023-02-06T12:42:43.101Z,55.05
2023-02-06T12:47:54.159Z,60.42
2023-02-06T12:53:03.080Z,56.76
2023-02-06T12:58:24.341Z,59.92
2023-02-06T13:03:30.210Z,57.90
2023-02-06T13:08:42.563Z,60.40
2023-02-06T13:13:49.690Z,60.60
2023-02-06T13:18:53.964Z,56.88
2023-02-06T13:24:15.915Z,52.45
2023-02-06T13:29:26.751Z,45.17
2023-02-06T13:34:35.809Z,43.13
2023-02-06T13:39:39.168Z,44.70
2023-02-06T13:44:44.057Z,44.59
2023-02-06T13:50:07.193Z,47.72
2023-02-06T13:55:21.825Z,50.65
2023-02-06T14:00:30.338Z,53.81
2023-02-06T14:05:46.496Z,54.20
2023-02-06T14:11:02.176Z,50.80
2023-02-06T14:16:19.211Z,47.90
2023-02-06T14:21:43.759Z,51.71
2023-02-06T14:26:55.308Z,52.63
2023-02-06T14:32:14.402Z,48.85
2023-02-06T14:37:41.094Z,51.90
2023-02-06T14:42:46.520Z,49.10
2023-02-06T14:47:55.688Z,56.48
2023-02-06T14:53:03.023Z,78.72
2023-02-06T14:58:19.245Z,63.93
2023-02-06T15:03:29.543Z,70.75
2023-02-06T15:08:33.655Z,59.01
2023-02-06T15:13:37.787Z,62.82
2023-02-06T15:18:42.823Z,67.94
2023-02-06T15:23:59.341Z,81.69
2023-02-06T15:29:04.131Z,94.74
2023-02-06T15:34:18.453Z,94.12
2023-02-06T15:39:22.227Z,91.34
2023-02-06T15:44:28.710Z,93.53
2023-02-06T15:49:38.450Z,98.69
2023-02-06T15:54:45.095Z,93.09
2023-02-06T15:59:48.662Z,97.57
2023-02-06T16:04:55.085Z,94.03
2023-02-06T16:10:15.200Z,94.72
2023-02-06T16:15:26.871Z,83.46
2023-02-06T16:20:39.768Z,78.07
2023-02-06T16:25:43.507Z,82.24
2023-02-06T16:30:54.350Z,85.34
2023-02-06T16:35:59.240Z,90.12
2023-02-06T16:41:02.709Z,95.69
2023-02-06T16:46:08.596Z,92.06
2023-02-06T16:51:17.804Z,94.75
2023-02-06T16:56:22.522Z,96.28
2023-02-06T17:01:29.713Z,94.09
2023-02-06T17:06:37.238Z,96.83
2023-02-06T17:11:43.675Z,92.55
2023-02-06T17:16:47.157Z,90.22
2023-02-06T17:21:52.017Z,94.38
2023-02-06T17:26:55.502Z,93.49
2023-02-06T17:31:59.187Z,92.93
2023-02-06T17:37:04.677Z,91.19
2023-02-06T17:42:08.321Z,89.51
2023-02-06T17:47:12.219Z,90.60
2023-02-06T17:52:17.770Z,91.47
2023-02-06T17:57:21.347Z,107.47
2023-02-06T18:02:24.882Z,100.48
2023-02-06T18:07:29.896Z,95.46
2023-02-06T18:12:33.425Z,95.33
2023-02-06T18:17:37.079Z,96.33
2023-02-06T18:22:42.208Z,100.73
2023-02-06T18:27:47.927Z,95.37
2023-02-06T18:32:51.366Z,96.35
2023-02-06T18:37:56.251Z,100.07
2023-02-06T18:43:02.812Z,93.95
2023-02-06T18:48:07.513Z,99.58
2023-02-06T18:53:12.422Z,98.76
2023-02-06T18:58:18.399Z,96.53
2023-02-06T19:03:22.320Z,98.74
2023-02-06T19:08:27.702Z,97.94
2023-02-06T19:13:31.240Z,86.35
2023-02-06T19:18:38.891Z,82.77
2023-02-06T19:23:46.680Z,79.22
2023-02-06T19:28:50.410Z,76.88
2023-02-06T19:33:58.967Z,79.25
2023-02-06T19:39:05.476Z,73.63
2023-02-06T19:44:13.297Z,72.63
2023-02-06T19:49:16.786Z,70.83
2023-02-06T19:54:22.830Z,77.22
2023-02-06T19:59:30.497Z,71.05
2023-02-06T20:04:37.964Z,71.20
2023-02-06T20:09:42.791Z,71.45
2023-02-06T20:14:51.145Z,76.96
2023-02-06T20:19:55.030Z,69.11
2023-02-06T20:25:00.016Z,65.24
2023-02-06T20:30:06.465Z,65.95
2023-02-06T20:35:09.985Z,66.10
2023-02-06T20:40:14.824Z,64.70
2023-02-06T20:45:18.408Z,58.61
2023-02-06T20:50:21.862Z,57.97
2023-02-06T20:55:27.230Z,61.13
2023-02-06T21:00:30.946Z,60.41
2023-02-06T21:05:34.605Z,60.04
2023-02-06T21:10:39.755Z,59.11
2023-02-06T21:15:43.437Z,58.44
2023-02-06T21:20:47.092Z,57.81
2023-02-06T21:25:55.564Z,58.91
2023-02-06T21:31:03.287Z,59.56
2023-02-06T21:36:07.900Z,60.09
2023-02-06T21:41:14.814Z,60.32
2023-02-06T21:46:18.308Z,62.13
2023-02-06T21:51:23.236Z,63.89
2023-02-06T21:56:30.693Z,65.98
2023-02-06T22:01:41.010Z,66.80
2023-02-06T22:06:44.569Z,63.58
2023-02-06T22:11:49.389Z,61.74
2023-02-06T22:16:52.782Z,60.88
2023-02-06T22:21:58.659Z,61.70
2023-02-06T22:27:03.387Z,62.97
2023-02-06T22:32:07.325Z,60.97
2023-02-06T22:37:10.889Z,58.80
2023-02-06T22:42:15.791Z,58.66
2023-02-06T22:47:19.136Z,65.99
2023-02-06T22:52:40.111Z,67.40
2023-02-06T22:57:45.162Z,69.96
2023-02-06T23:02:51.009Z,71.46
2023-02-06T23:07:54.463Z,71.05
2023-02-06T23:12:59.330Z,67.87
2023-02-06T23:18:02.990Z,72.22
2023-02-06T23:23:06.797Z,72.56
2023-02-06T23:28:11.682Z,72.93
2023-02-06T23:33:16.057Z,74.29
2023-02-06T23:38:19.894Z,73.39
2023-02-06T23:43:27.137Z,74.22
2023-02-06T23:48:33.350Z,75.32
2023-02-06T23:53:39.172Z,78.00
2023-02-06T23:58:44.105Z,78.09
